Time;durP1;ratioP1;P1;durP2;ratioP2;P2;SDS_P1;SDS_P2;PMS_P1;PMS_P2;Temp;Humidity;BMP_temperature;BMP_pressure;BME280_temperature;BME280_humidity;BME280_pressure;Samples;Min_cycle;Max_cycle;Signal;HPM_P1;HPM_P2
2022/08/01 00:00:40;;;;;;;;;;;;;;;19.45;52.96;96578.06;5071005;28;19995;-74
2022/08/01 00:03:06;;;;;;;;;;;;;;;19.43;53.00;96576.75;5070527;28;20048;-74
2022/08/01 00:05:32;;;;;;;;;;;;;;;19.42;53.07;96581.28;5079873;28;20002;-73
2022/08/01 00:07:58;;;;;;;;;;;;;;;19.41;52.96;96582.31;5073210;28;19961;-73
2022/08/01 00:10:24;;;;;;;;;;;;;;;19.40;53.28;96579.91;5081578;28;19961;-73
2022/08/01 00:12:50;;;;;;;;;;;;;;;19.37;53.66;96581.28;5072352;28;19980;-73
2022/08/01 00:15:17;;;;;;;;;;;;;;;19.33;53.61;96577.56;5074817;28;20111;-74
2022/08/01 00:17:43;;;;;;;;;;;;;;;19.31;53.97;96584.22;5078682;28;19956;-74
2022/08/01 00:20:10;;;;;;;;;;;;;;;19.25;54.13;96588.75;5075028;28;20321;-72
2022/08/01 00:22:36;;;;;;;;;;;;;;;19.20;54.32;96576.25;5073038;28;20339;-72
2022/08/01 00:25:03;;;;;;;;;;;;;;;19.17;54.35;96589.28;5082305;28;20006;-73
2022/08/01 00:27:29;;;;;;;;;;;;;;;19.14;54.48;96592.50;5081827;28;19956;-73
2022/08/01 00:29:55;;;;;;;;;;;;;;;19.11;54.28;96591.19;5091633;28;19964;-73
2022/08/01 00:32:20;;;;;;;;;;;;;;;19.08;54.53;96596.22;5088956;28;20367;-74
2022/08/01 00:34:46;;;;;;;;;;;;;;;19.05;54.45;96598.34;5079332;28;19993;-73
2022/08/01 00:37:12;;;;;;;;;;;;;;;19.01;54.90;96596.50;5079699;28;19987;-73
2022/08/01 00:39:38;;;;;;;;;;;;;;;18.98;55.45;96600.50;5086714;28;20416;-73
2022/08/01 00:42:07;;;;;;;;;;;;;;;18.93;55.02;96597.84;5077689;28;19974;-74
2022/08/01 00:44:34;;;;;;;;;;;;;;;18.90;55.07;96601.03;5065455;28;19957;-73
2022/08/01 00:47:00;;;;;;;;;;;;;;;18.87;55.80;96598.91;5079849;28;19965;-73
2022/08/01 00:49:26;;;;;;;;;;;;;;;18.84;55.86;96596.78;5087098;28;19968;-73
2022/08/01 00:51:52;;;;;;;;;;;;;;;18.80;55.63;96601.84;5096151;28;19964;-73
2022/08/01 00:54:18;;;;;;;;;;;;;;;18.78;56.16;96605.78;5083175;28;20447;-73
2022/08/01 00:56:44;;;;;;;;;;;;;;;18.75;55.99;96603.66;5081103;28;20448;-73
2022/08/01 00:59:11;;;;;;;;;;;;;;;18.70;56.63;96599.16;5085370;28;19965;-73
2022/08/01 01:01:37;;;;;;;;;;;;;;;18.68;56.44;96603.94;5077594;28;19972;-73
2022/08/01 01:04:03;;;;;;;;;;;;;;;18.65;56.36;96599.94;5079312;28;19974;-73
2022/08/01 01:06:50;;;;;;;;;;;;;;;18.63;56.40;96601.28;5082546;28;19964;-73
2022/08/01 01:09:28;;;;;;;;;;;;;;;18.60;56.88;96604.44;5069656;28;20335;-77
2022/08/01 01:12:00;;;;;;;;;;;;;;;18.57;57.28;96602.34;5084437;28;20446;-72
2022/08/01 01:14:30;;;;;;;;;;;;;;;18.54;56.76;96601.03;5069409;28;19964;-72
2022/08/01 01:16:58;;;;;;;;;;;;;;;18.51;57.19;96598.88;5083638;28;19957;-72
2022/08/01 01:19:28;;;;;;;;;;;;;;;18.49;57.31;96608.97;5082041;28;19962;-72
2022/08/01 01:22:20;;;;;;;;;;;;;;;18.45;57.58;96611.34;5067234;28;19960;-72
2022/08/01 01:24:51;;;;;;;;;;;;;;;18.42;57.50;96611.88;5057572;28;20334;-72
2022/08/01 01:27:42;;;;;;;;;;;;;;;18.40;57.55;96613.22;5085737;28;19984;-72
2022/08/01 01:30:08;;;;;;;;;;;;;;;18.38;57.57;96612.69;5078241;28;19967;-73
2022/08/01 01:32:37;;;;;;;;;;;;;;;18.36;57.65;96612.16;5078985;28;19969;-73
2022/08/01 01:35:06;;;;;;;;;;;;;;;18.34;58.10;96623.03;5083551;28;20011;-72
2022/08/01 01:37:33;;;;;;;;;;;;;;;18.33;57.85;96618.78;5078468;28;19975;-72
2022/08/01 01:39:59;;;;;;;;;;;;;;;18.31;58.08;96610.28;5082799;28;20434;-73
2022/08/01 01:42:26;;;;;;;;;;;;;;;18.29;58.27;96615.06;5078970;28;20420;-72
2022/08/01 01:44:54;;;;;;;;;;;;;;;18.28;58.35;96610.78;5077421;28;19966;-72
2022/08/01 01:47:21;;;;;;;;;;;;;;;18.26;58.40;96616.34;5061988;28;19967;-72
2022/08/01 01:49:48;;;;;;;;;;;;;;;18.23;57.92;96614.25;5064148;28;19957;-72
2022/08/01 01:52:16;;;;;;;;;;;;;;;18.21;58.45;96620.88;5081014;28;19964;-72
2022/08/01 01:54:44;;;;;;;;;;;;;;;18.18;58.23;96605.47;5075024;28;20419;-73
2022/08/01 01:57:11;;;;;;;;;;;;;;;18.17;58.88;96611.84;5075639;28;20333;-73
2022/08/01 01:59:38;;;;;;;;;;;;;;;18.15;58.83;96606.78;5074411;28;19973;-73
2022/08/01 02:02:06;;;;;;;;;;;;;;;18.12;59.06;96612.63;5080958;28;19968;-73
2022/08/01 02:04:32;;;;;;;;;;;;;;;18.09;59.86;96617.66;5089638;28;20377;-73
2022/08/01 02:06:58;;;;;;;;;;;;;;;18.04;59.83;96605.97;5079812;28;19965;-74
2022/08/01 02:09:26;;;;;;;;;;;;;;;18.02;59.46;96613.41;5075461;28;19952;-73
2022/08/01 02:11:53;;;;;;;;;;;;;;;18.00;59.50;96604.09;5075238;28;19976;-73
2022/08/01 02:14:19;;;;;;;;;;;;;;;17.98;59.52;96600.91;5078020;28;19971;-73
2022/08/01 02:16:49;;;;;;;;;;;;;;;17.97;59.23;96601.97;5083714;28;19981;-73
2022/08/01 02:19:19;;;;;;;;;;;;;;;17.96;59.41;96608.34;5082018;28;19986;-73
2022/08/01 02:21:55;;;;;;;;;;;;;;;17.94;59.65;96611.25;5081566;28;19956;-72
2022/08/01 02:24:20;;;;;;;;;;;;;;;17.92;60.12;96617.88;5075700;28;19967;-73
2022/08/01 02:26:48;;;;;;;;;;;;;;;17.89;59.58;96611.25;5073977;28;20326;-73
2022/08/01 02:29:17;;;;;;;;;;;;;;;17.86;60.00;96611.75;5083935;28;19963;-72
2022/08/01 02:31:46;;;;;;;;;;;;;;;17.82;59.78;96616.75;5076367;28;19967;-72
2022/08/01 02:34:15;;;;;;;;;;;;;;;17.79;60.15;96611.97;5079550;28;19972;-78
2022/08/01 02:36:42;;;;;;;;;;;;;;;17.76;60.23;96609.03;5081926;28;20433;-73
2022/08/01 02:39:09;;;;;;;;;;;;;;;17.74;60.31;96611.94;5073997;28;20326;-73
2022/08/01 02:41:39;;;;;;;;;;;;;;;17.72;60.54;96607.94;5074754;28;19955;-73
2022/08/01 02:44:06;;;;;;;;;;;;;;;17.69;60.98;96622.53;5080441;28;19961;-76
2022/08/01 02:46:40;;;;;;;;;;;;;;;17.67;61.10;96618.53;5076905;28;19964;-73
2022/08/01 02:49:08;;;;;;;;;;;;;;;17.65;61.03;96619.59;5082077;28;19960;-73
2022/08/01 02:51:35;;;;;;;;;;;;;;;17.62;61.26;96619.31;5073843;28;19961;-73
2022/08/01 02:54:03;;;;;;;;;;;;;;;17.60;61.22;96614.28;5080232;28;19968;-73
2022/08/01 02:56:36;;;;;;;;;;;;;;;17.59;61.33;96623.28;5076600;28;19983;-73
2022/08/01 02:59:03;;;;;;;;;;;;;;;17.58;61.45;96624.34;5079925;28;19980;-73
2022/08/01 03:01:31;;;;;;;;;;;;;;;17.56;61.49;96621.16;5075022;28;19965;-73
2022/08/01 03:03:57;;;;;;;;;;;;;;;17.54;61.95;96625.91;5074582;28;19962;-73
2022/08/01 03:06:23;;;;;;;;;;;;;;;17.52;61.87;96624.56;5074367;28;19975;-73
2022/08/01 03:08:50;;;;;;;;;;;;;;;17.51;61.98;96615.81;5074320;28;19950;-72
2022/08/01 03:11:17;;;;;;;;;;;;;;;17.51;62.04;96621.09;5074613;28;19966;-72
2022/08/01 03:13:44;;;;;;;;;;;;;;;17.49;62.37;96615.28;5056460;28;19995;-72
2022/08/01 03:16:11;;;;;;;;;;;;;;;17.49;62.48;96615.28;5074526;28;20347;-72
2022/08/01 03:18:38;;;;;;;;;;;;;;;17.50;62.30;96616.09;5074727;28;19965;-73
2022/08/01 03:21:05;;;;;;;;;;;;;;;17.48;62.84;96618.19;5074291;28;19959;-73
2022/08/01 03:23:32;;;;;;;;;;;;;;;17.48;63.11;96618.19;5074463;28;19968;-74
2022/08/01 03:26:01;;;;;;;;;;;;;;;17.47;63.63;96622.69;5074106;28;19969;-74
2022/08/01 03:28:27;;;;;;;;;;;;;;;17.46;63.68;96621.09;5074191;28;20398;-72
2022/08/01 03:30:53;;;;;;;;;;;;;;;17.45;63.48;96616.84;5073950;28;19957;-73
2022/08/01 03:33:19;;;;;;;;;;;;;;;17.42;64.57;96620.78;5074005;28;20423;-72
2022/08/01 03:35:53;;;;;;;;;;;;;;;17.41;64.54;96629.03;5073902;28;19987;-74
2022/08/01 03:38:22;;;;;;;;;;;;;;;17.41;64.07;96623.72;5074644;28;20435;-73
2022/08/01 03:41:08;;;;;;;;;;;;;;;17.40;63.72;96614.16;5074041;28;20319;-73
2022/08/01 03:43:41;;;;;;;;;;;;;;;17.40;64.61;96616.81;5073767;28;19961;-74
2022/08/01 03:46:13;;;;;;;;;;;;;;;17.39;64.38;96621.31;5073923;28;19968;-73
2022/08/01 03:48:43;;;;;;;;;;;;;;;17.39;64.69;96623.97;5073954;28;19960;-73
2022/08/01 03:51:10;;;;;;;;;;;;;;;17.38;64.76;96617.06;5073762;28;19985;-73
2022/08/01 03:53:36;;;;;;;;;;;;;;;17.38;64.47;96611.75;5073797;28;19969;-73
2022/08/01 03:56:03;;;;;;;;;;;;;;;17.39;65.28;96626.63;5073539;28;19976;-74
2022/08/01 03:58:30;;;;;;;;;;;;;;;17.39;65.61;96620.53;5074360;28;19961;-73
2022/08/01 04:00:56;;;;;;;;;;;;;;;17.37;65.60;96612.84;5073670;28;19952;-73
2022/08/01 04:03:23;;;;;;;;;;;;;;;17.37;65.13;96612.84;5072135;28;20359;-73
2022/08/01 04:05:49;;;;;;;;;;;;;;;17.37;65.42;96618.13;5056915;28;19955;-73
2022/08/01 04:08:15;;;;;;;;;;;;;;;17.36;65.80;96619.16;5072478;28;20615;-73
2022/08/01 04:10:41;;;;;;;;;;;;;;;17.33;66.06;96611.75;5073065;28;19973;-73
2022/08/01 04:13:07;;;;;;;;;;;;;;;17.32;66.00;96620.75;5081874;28;19978;-73
2022/08/01 04:15:33;;;;;;;;;;;;;;;17.31;66.41;96621.00;5079059;28;20034;-73
2022/08/01 04:17:59;;;;;;;;;;;;;;;17.33;65.98;96616.25;5072641;28;19961;-77
2022/08/01 04:20:25;;;;;;;;;;;;;;;17.35;66.81;96622.09;5078748;28;20306;-74
2022/08/01 04:22:51;;;;;;;;;;;;;;;17.48;66.83;96621.63;5072714;28;19962;-74
2022/08/01 04:25:26;;;;;;;;;;;;;;;17.64;66.46;96625.16;5075080;28;19994;-74
2022/08/01 04:27:53;;;;;;;;;;;;;;;17.77;66.32;96624.69;5075174;28;19972;-74
2022/08/01 04:30:21;;;;;;;;;;;;;;;17.88;65.72;96622.09;5058817;28;19960;-73
2022/08/01 04:32:47;;;;;;;;;;;;;;;17.90;65.29;96630.59;5073832;28;20030;-74
2022/08/01 04:35:18;;;;;;;;;;;;;;;17.86;64.99;96630.31;5072088;28;19974;-74
2022/08/01 04:37:45;;;;;;;;;;;;;;;17.78;65.24;96634.22;5073283;28;20426;-74
2022/08/01 04:40:12;;;;;;;;;;;;;;;17.72;64.88;96627.31;5073357;28;19958;-74
2022/08/01 04:42:38;;;;;;;;;;;;;;;17.68;65.84;96625.44;5073492;28;19959;-74
2022/08/01 04:45:04;;;;;;;;;;;;;;;17.62;65.83;96636.03;5078224;28;19967;-74
2022/08/01 04:47:30;;;;;;;;;;;;;;;17.59;66.21;96638.38;5075368;28;19962;-74
2022/08/01 04:49:56;;;;;;;;;;;;;;;17.55;65.69;96624.84;5072421;28;19972;-74
2022/08/01 04:52:22;;;;;;;;;;;;;;;17.60;65.80;96638.13;5073349;28;19960;-74
2022/08/01 04:54:48;;;;;;;;;;;;;;;17.69;66.23;96633.13;5071760;28;20010;-74
2022/08/01 04:57:14;;;;;;;;;;;;;;;17.75;64.40;96620.69;5071976;28;19978;-73
2022/08/01 04:59:42;;;;;;;;;;;;;;;17.85;64.76;96634.03;5073636;28;19961;-74
2022/08/01 05:02:15;;;;;;;;;;;;;;;18.01;63.65;96617.09;5072902;28;20324;-74
2022/08/01 05:04:42;;;;;;;;;;;;;;;18.21;62.33;96616.38;5073037;28;19950;-76
2022/08/01 05:07:09;;;;;;;;;;;;;;;18.45;62.18;96608.69;5073193;28;20424;-73
2022/08/01 05:09:35;;;;;;;;;;;;;;;18.73;61.69;96595.97;5072821;28;19971;-73
2022/08/01 05:12:02;;;;;;;;;;;;;;;18.96;61.17;96597.31;5072887;28;20363;-74
2022/08/01 05:14:31;;;;;;;;;;;;;;;19.05;61.15;96594.91;5074635;28;19960;-73
2022/08/01 05:16:58;;;;;;;;;;;;;;;19.17;60.29;96590.09;5076070;28;19967;-74
2022/08/01 05:19:24;;;;;;;;;;;;;;;19.43;60.56;96588.16;5076493;28;19957;-74
2022/08/01 05:21:50;;;;;;;;;;;;;;;19.75;59.52;96588.88;5076553;28;19986;-74
2022/08/01 05:24:16;;;;;;;;;;;;;;;20.02;58.66;96583.16;5077094;28;20414;-73
2022/08/01 05:26:42;;;;;;;;;;;;;;;20.23;57.45;96565.97;5076445;28;20406;-73
2022/08/01 05:29:08;;;;;;;;;;;;;;;20.25;57.35;96561.19;5058715;28;19971;-73
2022/08/01 05:31:34;;;;;;;;;;;;;;;20.40;56.62;96562.13;5076458;28;19963;-73
2022/08/01 05:34:02;;;;;;;;;;;;;;;20.64;56.75;96562.22;5076513;28;19960;-73
2022/08/01 05:36:28;;;;;;;;;;;;;;;20.90;56.43;96562.81;5076149;28;19984;-73
2022/08/01 05:38:54;;;;;;;;;;;;;;;21.18;55.27;96563.06;5075631;28;19959;-73
2022/08/01 05:41:20;;;;;;;;;;;;;;;21.32;54.79;96550.66;5076557;28;19960;-75
2022/08/01 05:43:46;;;;;;;;;;;;;;;21.40;55.00;96549.25;5076466;28;19957;-73
2022/08/01 05:46:12;;;;;;;;;;;;;;;21.45;54.26;96543.88;5076338;28;19994;-73
2022/08/01 05:48:38;;;;;;;;;;;;;;;21.54;55.05;96555.47;5076487;28;19964;-73
2022/08/01 05:51:04;;;;;;;;;;;;;;;21.85;54.51;96560.44;5076154;28;20007;-74
2022/08/01 05:53:30;;;;;;;;;;;;;;;22.00;50.98;96522.84;5076278;28;19989;-73
2022/08/01 05:55:56;;;;;;;;;;;;;;;22.06;52.81;96543.06;5075617;28;20455;-74
2022/08/01 05:58:22;;;;;;;;;;;;;;;22.28;52.18;96542.50;5076017;28;19989;-74
2022/08/01 06:00:48;;;;;;;;;;;;;;;22.62;52.58;96548.66;5075881;28;19955;-74
2022/08/01 06:03:14;;;;;;;;;;;;;;;22.89;51.64;96534.56;5075874;28;20343;-74
2022/08/01 06:05:40;;;;;;;;;;;;;;;23.06;50.36;96537.47;5076452;28;20010;-74
2022/08/01 06:08:05;;;;;;;;;;;;;;;23.15;50.00;96534.13;5071171;28;19961;-74
2022/08/01 06:10:31;;;;;;;;;;;;;;;23.28;49.75;96536.78;5074079;28;19959;-74
2022/08/01 06:12:57;;;;;;;;;;;;;;;23.39;50.40;96549.97;5068914;28;20472;-74
2022/08/01 06:15:23;;;;;;;;;;;;;;;23.55;50.25;96548.59;5075676;28;19967;-74
2022/08/01 06:17:51;;;;;;;;;;;;;;;23.68;49.14;96550.44;5074740;28;20517;-74
2022/08/01 06:20:17;;;;;;;;;;;;;;;23.75;48.77;96544.72;5075621;28;19966;-74
2022/08/01 06:22:43;;;;;;;;;;;;;;;23.84;48.95;96550.16;5075332;28;19971;-74
2022/08/01 06:25:09;;;;;;;;;;;;;;;24.01;48.70;96554.91;5075150;28;19966;-74
2022/08/01 06:27:35;;;;;;;;;;;;;;;24.01;48.56;96554.91;5075654;28;20048;-74
2022/08/01 06:30:01;;;;;;;;;;;;;;;24.00;48.48;96561.31;5063805;28;19961;-74
2022/08/01 06:32:27;;;;;;;;;;;;;;;24.06;48.72;96566.28;5075207;28;19958;-73
2022/08/01 06:34:53;;;;;;;;;;;;;;;24.24;47.06;96558.41;5075385;28;19964;-72
2022/08/01 06:37:19;;;;;;;;;;;;;;;24.18;46.26;96543.53;5075197;28;19976;-72
2022/08/01 06:39:45;;;;;;;;;;;;;;;24.19;48.48;96566.53;5074630;28;19961;-73
2022/08/01 06:42:11;;;;;;;;;;;;;;;24.24;47.85;96569.91;5074725;28;20003;-73
2022/08/01 06:44:37;;;;;;;;;;;;;;;24.38;48.92;96569.88;5075228;28;20416;-72
2022/08/01 06:47:03;;;;;;;;;;;;;;;24.39;48.09;96559.94;5075024;28;20002;-72
2022/08/01 06:49:29;;;;;;;;;;;;;;;24.42;47.82;96560.13;5075133;28;19961;-75
2022/08/01 06:51:54;;;;;;;;;;;;;;;24.45;48.31;96558.72;5075022;28;19964;-72
2022/08/01 06:54:21;;;;;;;;;;;;;;;24.56;47.00;96564.66;5074767;28;19962;-72
2022/08/01 06:56:46;;;;;;;;;;;;;;;24.50;47.05;96559.41;5074085;28;19997;-72
2022/08/01 06:59:12;;;;;;;;;;;;;;;24.52;48.25;96564.47;5074057;28;20422;-72
2022/08/01 07:01:38;;;;;;;;;;;;;;;24.63;47.84;96567.69;5070281;28;19968;-72
2022/08/01 07:04:05;;;;;;;;;;;;;;;24.74;48.42;96577.09;5073984;28;19963;-72
2022/08/01 07:06:31;;;;;;;;;;;;;;;24.84;48.03;96566.09;5074560;28;20031;-72
2022/08/01 07:08:56;;;;;;;;;;;;;;;24.97;47.24;96566.31;5074655;28;19957;-72
2022/08/01 07:11:23;;;;;;;;;;;;;;;25.00;47.57;96571.84;5074472;28;20027;-72
2022/08/01 07:13:49;;;;;;;;;;;;;;;25.13;47.13;96572.88;5074392;28;19962;-72
2022/08/01 07:16:15;;;;;;;;;;;;;;;25.21;46.88;96564.09;5074273;28;20021;-72
2022/08/01 07:18:41;;;;;;;;;;;;;;;25.34;46.78;96561.63;5074433;28;20330;-72
2022/08/01 07:21:07;;;;;;;;;;;;;;;25.47;47.36;96574.94;5073524;28;20328;-72
2022/08/01 07:23:34;;;;;;;;;;;;;;;25.64;46.54;96566.16;5074548;28;19978;-72
2022/08/01 07:26:01;;;;;;;;;;;;;;;25.86;48.05;96570.59;5074213;28;19959;-72
2022/08/01 07:28:27;;;;;;;;;;;;;;;26.00;45.41;96562.44;5073038;28;19968;-74
2022/08/01 07:30:53;;;;;;;;;;;;;;;26.07;45.91;96562.75;5066183;28;19965;-72
2022/08/01 07:33:19;;;;;;;;;;;;;;;26.20;45.93;96569.09;5070660;28;19971;-72
2022/08/01 07:35:45;;;;;;;;;;;;;;;26.33;45.36;96567.34;5074409;28;19970;-72
2022/08/01 07:38:11;;;;;;;;;;;;;;;26.44;45.66;96571.31;5073293;28;20338;-72
2022/08/01 07:40:37;;;;;;;;;;;;;;;26.60;44.82;96555.47;5074185;28;19958;-72
2022/08/01 07:43:03;;;;;;;;;;;;;;;26.68;44.65;96557.38;5074034;28;19968;-73
2022/08/01 07:45:30;;;;;;;;;;;;;;;26.61;43.52;96548.22;5074146;28;20372;-72
2022/08/01 07:47:56;;;;;;;;;;;;;;;26.61;44.70;96556.28;5073967;28;20409;-72
2022/08/01 07:50:22;;;;;;;;;;;;;;;26.60;44.48;96555.47;5074088;28;19983;-72
2022/08/01 07:52:47;;;;;;;;;;;;;;;26.61;44.18;96549.00;5073889;28;19973;-72
2022/08/01 07:55:13;;;;;;;;;;;;;;;26.73;44.43;96545.66;5073921;28;19984;-72
2022/08/01 07:57:39;;;;;;;;;;;;;;;26.80;43.80;96537.88;5055686;28;19979;-74
2022/08/01 08:00:06;;;;;;;;;;;;;;;26.90;45.21;96550.22;5073441;28;19965;-73
2022/08/01 08:02:32;;;;;;;;;;;;;;;27.05;44.67;96554.28;5073737;28;19965;-72
2022/08/01 08:04:58;;;;;;;;;;;;;;;27.13;44.32;96543.50;5073814;28;19966;-73
2022/08/01 08:07:24;;;;;;;;;;;;;;;27.16;44.11;96547.44;5056173;28;20032;-72
2022/08/01 08:09:50;;;;;;;;;;;;;;;27.33;43.91;96536.59;5073714;28;19996;-72
2022/08/01 08:12:16;;;;;;;;;;;;;;;27.42;41.88;96533.88;5066737;28;19984;-73
2022/08/01 08:14:42;;;;;;;;;;;;;;;27.22;41.53;96534.59;5073851;28;20064;-72
2022/08/01 08:17:08;;;;;;;;;;;;;;;27.11;43.36;96542.25;5072934;28;19978;-72
2022/08/01 08:19:36;;;;;;;;;;;;;;;27.23;43.13;96533.50;5068163;28;19998;-72
2022/08/01 08:22:02;;;;;;;;;;;;;;;27.16;43.11;96535.88;5073610;28;19973;-72
2022/08/01 08:24:28;;;;;;;;;;;;;;;27.14;43.42;96531.59;5055704;28;19963;-72
2022/08/01 08:26:56;;;;;;;;;;;;;;;26.95;43.55;96533.09;5073291;28;20607;-72
2022/08/01 08:29:22;;;;;;;;;;;;;;;26.72;44.09;96549.47;5073906;28;19973;-72
2022/08/01 08:31:48;;;;;;;;;;;;;;;26.83;44.53;96548.00;5055618;28;19962;-73
2022/08/01 08:34:14;;;;;;;;;;;;;;;26.63;44.29;96530.66;5073441;28;20431;-73
2022/08/01 08:36:40;;;;;;;;;;;;;;;26.67;43.99;96534.28;5073535;28;19981;-74
2022/08/01 08:39:06;;;;;;;;;;;;;;;26.45;45.26;96540.59;5073426;28;19961;-72
2022/08/01 08:41:33;;;;;;;;;;;;;;;26.32;45.55;96550.44;5073161;28;20037;-77
2022/08/01 08:44:03;;;;;;;;;;;;;;;26.41;46.08;96545.03;5057146;28;19960;-72
2022/08/01 08:46:32;;;;;;;;;;;;;;;26.66;45.31;96537.28;5073519;28;19965;-74
2022/08/01 08:48:59;;;;;;;;;;;;;;;26.50;44.26;96532.38;5075955;28;19968;-73
2022/08/01 08:51:29;;;;;;;;;;;;;;;26.35;45.23;96548.22;5076895;28;20464;-72
2022/08/01 08:53:56;;;;;;;;;;;;;;;26.35;44.68;96543.63;5077072;28;19964;-73
2022/08/01 08:56:26;;;;;;;;;;;;;;;26.53;44.65;96537.13;5077449;28;19970;-72
2022/08/01 08:58:52;;;;;;;;;;;;;;;26.75;43.57;96526.50;5059519;28;20350;-72
2022/08/01 09:01:18;;;;;;;;;;;;;;;26.87;43.71;96529.31;5077112;28;19964;-73
2022/08/01 09:03:44;;;;;;;;;;;;;;;26.92;43.37;96527.25;5076840;28;20008;-72
2022/08/01 09:06:10;;;;;;;;;;;;;;;27.04;43.41;96521.19;5076950;28;20345;-72
2022/08/01 09:08:36;;;;;;;;;;;;;;;27.25;42.53;96521.28;5076749;28;19962;-72
2022/08/01 09:11:02;;;;;;;;;;;;;;;27.44;43.09;96528.16;5076921;28;20328;-73
2022/08/01 09:13:29;;;;;;;;;;;;;;;27.61;42.19;96519.19;5077049;28;19988;-72
2022/08/01 09:15:58;;;;;;;;;;;;;;;27.82;42.08;96513.81;5076788;28;19974;-72
2022/08/01 09:18:27;;;;;;;;;;;;;;;27.96;42.81;96525.19;5076928;28;19979;-72
2022/08/01 09:21:07;;;;;;;;;;;;;;;28.03;41.27;96520.03;5076882;28;19958;-73
2022/08/01 09:23:42;;;;;;;;;;;;;;;28.13;41.26;96522.34;5077276;28;19962;-73
2022/08/01 09:26:08;;;;;;;;;;;;;;;28.23;41.31;96521.16;5076828;28;19971;-72
2022/08/01 09:28:34;;;;;;;;;;;;;;;28.24;41.38;96524.63;5076681;28;20397;-72
2022/08/01 09:31:07;;;;;;;;;;;;;;;28.14;38.72;96512.34;5076648;28;19956;-72
2022/08/01 09:33:47;;;;;;;;;;;;;;;27.82;40.42;96527.31;5076304;28;19970;-72
2022/08/01 09:36:13;;;;;;;;;;;;;;;27.54;41.32;96541.25;5076509;28;19965;-72
2022/08/01 09:38:38;;;;;;;;;;;;;;;27.50;41.33;96540.34;5075941;28;20003;-73
2022/08/01 09:41:04;;;;;;;;;;;;;;;27.47;39.93;96531.00;5076397;28;19976;-72
2022/08/01 09:43:30;;;;;;;;;;;;;;;27.56;39.79;96530.97;5076301;28;19962;-73
2022/08/01 09:45:56;;;;;;;;;;;;;;;27.73;41.83;96533.53;5076399;28;19959;-74
2022/08/01 09:48:23;;;;;;;;;;;;;;;27.91;41.01;96526.16;5076119;28;19961;-72
2022/08/01 09:50:50;;;;;;;;;;;;;;;28.03;40.97;96522.72;5076370;28;19961;-72
2022/08/01 09:53:16;;;;;;;;;;;;;;;28.03;40.09;96516.56;5076081;28;19961;-72
2022/08/01 09:55:43;;;;;;;;;;;;;;;28.16;40.99;96525.50;5076561;28;19967;-72
2022/08/01 09:58:10;;;;;;;;;;;;;;;28.11;39.49;96518.41;5075951;28;19982;-72
2022/08/01 10:00:37;;;;;;;;;;;;;;;28.17;40.32;96517.09;5074871;28;19972;-72
2022/08/01 10:03:19;;;;;;;;;;;;;;;28.26;38.64;96508.91;5076359;28;19962;-72
2022/08/01 10:05:46;;;;;;;;;;;;;;;28.32;40.14;96521.84;5075804;28;20411;-72
2022/08/01 10:08:12;;;;;;;;;;;;;;;28.45;40.38;96520.00;5075898;28;19962;-72
2022/08/01 10:10:38;;;;;;;;;;;;;;;28.62;39.29;96505.59;5076093;28;20503;-72
2022/08/01 10:13:04;;;;;;;;;;;;;;;28.76;39.86;96509.88;5076050;28;19981;-72
2022/08/01 10:15:30;;;;;;;;;;;;;;;28.71;37.69;96498.19;5075874;28;20008;-73
2022/08/01 10:17:57;;;;;;;;;;;;;;;28.80;39.32;96500.00;5075848;28;19986;-73
2022/08/01 10:20:28;;;;;;;;;;;;;;;28.87;39.68;96503.75;5075901;28;19967;-72
2022/08/01 10:22:54;;;;;;;;;;;;;;;28.81;39.09;96504.25;5064100;28;19963;-73
2022/08/01 10:25:20;;;;;;;;;;;;;;;28.60;39.06;96505.13;5075404;28;20416;-73
2022/08/01 10:27:48;;;;;;;;;;;;;;;28.27;38.53;96503.19;5075634;28;19959;-72
2022/08/01 10:30:15;;;;;;;;;;;;;;;28.18;40.19;96515.97;5075641;28;19961;-73
2022/08/01 10:32:42;;;;;;;;;;;;;;;28.29;38.90;96511.75;5075424;28;20344;-73
2022/08/01 10:35:08;;;;;;;;;;;;;;;28.26;37.46;96481.94;5075550;28;20414;-73
2022/08/01 10:37:35;;;;;;;;;;;;;;;28.09;39.36;96499.84;5075174;28;20344;-74
2022/08/01 10:40:01;;;;;;;;;;;;;;;28.02;39.65;96502.28;5074240;28;19974;-74
2022/08/01 10:42:27;;;;;;;;;;;;;;;27.96;39.32;96500.91;5075213;28;19959;-72
2022/08/01 10:44:54;;;;;;;;;;;;;;;27.99;40.02;96505.66;5075244;28;19965;-72
2022/08/01 10:47:51;;;;;;;;;;;;;;;28.03;39.95;96500.38;5074996;28;19959;-72
2022/08/01 10:50:27;;;;;;;;;;;;;;;28.08;40.70;96510.97;5075220;28;19965;-73
2022/08/01 10:53:15;;;;;;;;;;;;;;;27.90;39.37;96499.53;5076543;28;20334;-72
2022/08/01 10:55:56;;;;;;;;;;;;;;;27.60;39.38;96504.94;5082094;28;19967;-73
2022/08/01 10:58:31;;;;;;;;;;;;;;;27.35;40.55;96511.28;5072313;28;20461;-73
2022/08/01 11:01:16;;;;;;;;;;;;;;;27.23;40.71;96512.75;5074766;28;19954;-73
2022/08/01 11:03:43;;;;;;;;;;;;;;;27.05;40.71;96509.31;5075037;28;19958;-72
2022/08/01 11:06:16;;;;;;;;;;;;;;;26.98;40.92;96506.31;5071263;28;19963;-73
2022/08/01 11:08:42;;;;;;;;;;;;;;;26.96;40.76;96499.69;5061341;28;19964;-72
2022/08/01 11:11:08;;;;;;;;;;;;;;;26.85;40.81;96510.03;5074653;28;19969;-72
2022/08/01 11:13:52;;;;;;;;;;;;;;;26.81;41.32;96509.84;5074125;28;19980;-73
2022/08/01 11:16:26;;;;;;;;;;;;;;;26.94;40.65;96497.31;5074757;28;19954;-73
2022/08/01 11:18:51;;;;;;;;;;;;;;;27.35;41.80;96508.59;5074664;28;20338;-73
2022/08/01 11:21:19;;;;;;;;;;;;;;;27.70;41.29;96501.88;5039974;28;20046;-73
2022/08/01 11:23:49;;;;;;;;;;;;;;;27.67;40.21;96485.56;5074415;28;19964;-73
2022/08/01 11:26:16;;;;;;;;;;;;;;;27.81;40.56;96491.50;5074448;28;19960;-72
2022/08/01 11:28:43;;;;;;;;;;;;;;;28.09;38.93;96472.09;5073109;28;19960;-72
2022/08/01 11:31:09;;;;;;;;;;;;;;;28.04;38.18;96464.22;5074222;28;19963;-73
2022/08/01 11:33:41;;;;;;;;;;;;;;;27.93;39.72;96475.41;5073762;28;19985;-73
2022/08/01 11:36:09;;;;;;;;;;;;;;;27.86;39.65;96474.34;5074265;28;19973;-72
2022/08/01 11:38:36;;;;;;;;;;;;;;;27.78;38.33;96459.00;5074103;28;19987;-72
2022/08/01 11:41:14;;;;;;;;;;;;;;;27.59;39.31;96454.84;5074242;28;19960;-72
2022/08/01 11:43:59;;;;;;;;;;;;;;;27.35;39.22;96457.41;5074080;28;19959;-72
2022/08/01 11:46:43;;;;;;;;;;;;;;;27.28;40.13;96466.00;5074099;28;19956;-73
2022/08/01 11:49:28;;;;;;;;;;;;;;;27.49;39.77;96458.75;5074052;28;19964;-72
2022/08/01 11:52:05;;;;;;;;;;;;;;;27.87;39.36;96454.38;5073773;28;20451;-72
2022/08/01 11:54:32;;;;;;;;;;;;;;;28.13;39.74;96452.22;5073938;28;19958;-72
2022/08/01 11:56:59;;;;;;;;;;;;;;;28.42;38.86;96449.75;5073891;28;20450;-73
2022/08/01 11:59:26;;;;;;;;;;;;;;;28.61;38.36;96449.25;5073825;28;19968;-72
2022/08/01 12:01:52;;;;;;;;;;;;;;;28.88;37.55;96440.50;5073776;28;19956;-73
2022/08/01 12:04:18;;;;;;;;;;;;;;;29.11;37.65;96437.41;5073934;28;19965;-73
2022/08/01 12:06:44;;;;;;;;;;;;;;;29.32;34.64;96429.16;5073721;28;19960;-72
2022/08/01 12:09:20;;;;;;;;;;;;;;;29.42;36.76;96436.00;5073112;28;20412;-72
2022/08/01 12:11:47;;;;;;;;;;;;;;;29.24;35.85;96438.19;5073665;28;19981;-75
2022/08/01 12:14:20;;;;;;;;;;;;;;;28.88;36.08;96439.72;5055641;28;20326;-73
2022/08/01 12:16:53;;;;;;;;;;;;;;;28.59;37.09;96446.09;5073491;28;19963;-73
2022/08/01 12:19:20;;;;;;;;;;;;;;;28.45;37.58;96443.69;5073825;28;19961;-72
2022/08/01 12:22:04;;;;;;;;;;;;;;;28.44;37.12;96440.19;5073539;28;19981;-73
2022/08/01 12:24:30;;;;;;;;;;;;;;;28.56;37.50;96444.06;5073189;28;19973;-73
2022/08/01 12:26:56;;;;;;;;;;;;;;;28.85;36.17;96438.50;5073337;28;20021;-73
2022/08/01 12:29:35;;;;;;;;;;;;;;;29.14;35.33;96421.28;5073550;28;19959;-73
2022/08/01 12:32:02;;;;;;;;;;;;;;;29.41;31.96;96407.41;5073319;28;19974;-72
2022/08/01 12:34:28;;;;;;;;;;;;;;;29.64;35.39;96411.19;5073732;28;19968;-73
2022/08/01 12:36:58;;;;;;;;;;;;;;;29.72;34.60;96414.91;5073259;28;19957;-73
2022/08/01 12:39:33;;;;;;;;;;;;;;;29.72;32.62;96413.00;5073152;28;19977;-73
2022/08/01 12:41:59;;;;;;;;;;;;;;;29.81;34.24;96422.88;5055677;28;19964;-74
2022/08/01 12:44:29;;;;;;;;;;;;;;;29.98;35.59;96433.38;5073443;28;19959;-74
2022/08/01 12:46:55;;;;;;;;;;;;;;;30.17;34.43;96416.50;5073450;28;19954;-74
2022/08/01 12:49:22;;;;;;;;;;;;;;;30.41;34.54;96420.25;5073254;28;19957;-74
2022/08/01 12:51:48;;;;;;;;;;;;;;;30.61;34.32;96415.72;5072988;28;19958;-74